METAR Data
IDs: Format: Raw Decoded Include TAF

Data at: 2109 UTC 02 Aug 2021

KTSP 022055Z AUTO 32014G20KT 10SM CLR 34/01 A3020 RMK AO2
KTSP 022035Z AUTO 32015KT 9SM CLR 34/M00 A3020 RMK AO2
KTSP 022015Z AUTO 31018KT 9SM CLR 34/M01 A3020 RMK AO2
KTSP 021955Z AUTO 30015KT 10SM CLR 34/M01 A3021 RMK AO2
KTSP 021935Z AUTO 33016KT 10SM CLR 34/M00 A3021 RMK AO2
KTSP 021915Z AUTO 31011G16KT 10SM CLR 34/00 A3022 RMK AO2
KTSP 021855Z AUTO 33008KT 10SM CLR 34/00 A3023 RMK AO2
KTSP 021835Z AUTO 33012KT 9SM CLR 34/00 A3023 RMK AO2
KTSP 021815Z AUTO 31011KT 10SM CLR 34/M00 A3023 RMK AO2
KTSP 021755Z AUTO VRB04G10KT 10SM CLR 33/00 A3024 RMK AO2
KTSP 021735Z AUTO 00000KT 10SM CLR 31/00 A3024 RMK AO2
KTSP 021715Z AUTO 00000KT 10SM CLR 30/01 A3025 RMK AO2
KTSP 021655Z AUTO 00000KT 10SM CLR 29/02 A3025 RMK AO2
KTSP 021635Z AUTO 25005KT 10SM CLR 28/02 A3025 RMK AO2
KTSP 021615Z AUTO 00000KT 10SM CLR 26/02 A3026 RMK AO2
KTSP 021555Z AUTO 00000KT 10SM CLR 25/02 A3026 RMK AO2
KTSP 021535Z AUTO 00000KT 10SM CLR 24/02 A3026 RMK AO2
KTSP 021515Z AUTO 00000KT 10SM CLR 23/02 A3027 RMK AO2
KTSP 021455Z AUTO 14004KT 10SM CLR 21/03 A3027 RMK AO2
KTSP 021435Z AUTO 11004KT 10SM CLR 19/03 A3026 RMK AO2
KTSP 021415Z AUTO 14004KT 10SM CLR 16/04 A3026 RMK AO2
KTSP 021355Z AUTO 00000KT 10SM CLR 15/02 A3026 RMK AO2
KTSP 021335Z AUTO 00000KT 10SM CLR 14/02 A3026 RMK AO2
KTSP 021315Z AUTO 00000KT 10SM CLR 14/02 A3025 RMK AO2
KTSP 021255Z AUTO 00000KT 10SM CLR 14/02 A3025 RMK AO2
KTSP 021235Z AUTO 12005KT 10SM CLR 14/03 A3024 RMK AO2
KTSP 021215Z AUTO 00000KT 10SM CLR 14/02 A3024 RMK AO2
KTSP 021155Z AUTO 00000KT 10SM CLR 15/03 A3024 RMK AO2
KTSP 021135Z AUTO 11003KT 10SM CLR 15/03 A3024 RMK AO2
KTSP 021115Z AUTO 10003KT 10SM CLR 16/02 A3023 RMK AO2
KTSP 021055Z AUTO 13005KT 10SM CLR 15/02 A3023 RMK AO2
KTSP 021035Z AUTO 14004KT 10SM CLR 16/03 A3023 RMK AO2
KTSP 021015Z AUTO 00000KT 10SM CLR 17/02 A3023 RMK AO2
KTSP 020955Z AUTO 00000KT 10SM CLR 17/03 A3023 RMK AO2
KTSP 020935Z AUTO 00000KT 10SM CLR 19/03 A3023 RMK AO2
KTSP 020915Z AUTO 00000KT 10SM CLR 20/03 A3023 RMK AO2
KTSP 020855Z AUTO 00000KT 10SM CLR 20/03 A3023 RMK AO2
KTSP 020835Z AUTO 00000KT 10SM CLR 21/04 A3023 RMK AO2
KTSP 020815Z AUTO 00000KT 10SM CLR 21/04 A3023 RMK AO2
KTSP 020755Z AUTO 00000KT 10SM CLR 22/04 A3024 RMK AO2
KTSP 020735Z AUTO 31004KT 10SM CLR 22/04 A3024 RMK AO2
KTSP 020715Z AUTO 00000KT 10SM CLR 22/04 A3024 RMK AO2
KTSP 020655Z AUTO 00000KT 10SM CLR 22/03 A3024 RMK AO2
KTSP 020635Z AUTO 33004KT 10SM CLR 22/03 A3024 RMK AO2
KTSP 020615Z AUTO 00000KT 10SM CLR 23/04 A3024 RMK AO2
KTSP 020555Z AUTO 28006KT 10SM CLR 23/03 A3024 RMK AO2
KTSP 020535Z AUTO 29006KT 10SM CLR 23/03 A3024 RMK AO2
KTSP 020515Z AUTO 29006KT 10SM CLR 24/03 A3024 RMK AO2
KTSP 020455Z AUTO 29008KT 10SM CLR 24/03 A3023 RMK AO2
KTSP 020435Z AUTO 30007KT 10SM CLR 24/04 A3023 RMK AO2
KTSP 020415Z AUTO 29006KT 10SM CLR 25/03 A3022 RMK AO2
KTSP 020355Z AUTO 27008KT 10SM CLR 26/03 A3021 RMK AO2
KTSP 020335Z AUTO 30007KT 10SM CLR 27/03 A3021 RMK AO2
KTSP 020315Z AUTO 27009KT 10SM CLR 27/03 A3021 RMK AO2
KTSP 020255Z AUTO 28007KT 10SM CLR 28/03 A3020 RMK AO2
KTSP 020235Z AUTO 31012KT 10SM CLR 29/03 A3020 RMK AO2
KTSP 020215Z AUTO 31013KT 10SM CLR 30/03 A3019 RMK AO2
KTSP 020155Z AUTO 30015KT 10SM CLR 30/04 A3018 RMK AO2
KTSP 020135Z AUTO 32015KT 10SM CLR 31/03 A3018 RMK AO2
KTSP 020115Z AUTO 31015KT 10SM CLR 31/02 A3018 RMK AO2
KTSP 020055Z AUTO 32012G19KT 10SM CLR 32/03 A3018 RMK AO2
KTSP 020035Z AUTO 29015KT 10SM CLR 32/03 A3018 RMK AO2
KTSP 020015Z AUTO 32010G19KT 10SM CLR 32/03 A3018 RMK AO2
KTSP 012355Z AUTO 32015G21KT 10SM CLR 33/05 A3018 RMK AO2
KTSP 012335Z AUTO 31013KT 10SM CLR 33/04 A3018 RMK AO2
KTSP 012315Z AUTO 31014G20KT 10SM CLR 33/03 A3019 RMK AO2
KTSP 012255Z AUTO 32012G18KT 10SM CLR 34/03 A3019 RMK AO2
KTSP 012235Z AUTO 31013G18KT 10SM CLR 34/03 A3019 RMK AO2
KTSP 012215Z AUTO 32016KT 9SM CLR 33/04 A3020 RMK AO2
KTSP 012155Z AUTO 31016KT 10SM CLR 34/03 A3020 RMK AO2
KTSP 012135Z AUTO 32012G21KT 9SM CLR 34/03 A3020 RMK AO2
KTSP 012115Z AUTO 32015KT 10SM CLR 34/04 A3020 RMK AO2
KTSP 012055Z AUTO 31013KT 10SM CLR 34/04 A3020 RMK AO2
KTSP 012035Z AUTO 33012G18KT 10SM CLR 34/04 A3020 RMK AO2
KTSP 012015Z AUTO 32012KT 9SM CLR 34/04 A3021 RMK AO2
KTSP 011955Z AUTO VRB06G12KT 050V110 9SM CLR 34/01 A3021 RMK AO2
KTSP 011935Z AUTO 09010G18KT 9SM CLR 33/03 A3021 RMK AO2
KTSP 011915Z AUTO 13010KT 10SM CLR 33/03 A3022 RMK AO2
KTSP 011855Z AUTO 12008G20KT 9SM CLR 32/04 A3022 RMK AO2
KTSP 011835Z AUTO 13010KT 9SM CLR 32/06 A3023 RMK AO2
KTSP 011815Z AUTO 13011G16KT 9SM CLR 31/06 A3023 RMK AO2
KTSP 011755Z AUTO 14008G14KT 110V170 10SM CLR 31/06 A3024 RMK AO2
KTSP 011735Z AUTO 13009KT 100V160 10SM CLR 31/06 A3024 RMK AO2
KTSP 011715Z AUTO 13009KT 080V140 10SM CLR 30/06 A3024 RMK AO2
KTSP 011655Z AUTO 08007KT 10SM CLR 30/05 A3024 RMK AO2
KTSP 011635Z AUTO 00000KT 10SM CLR 29/05 A3025 RMK AO2
KTSP 011615Z AUTO 00000KT 10SM CLR 28/04 A3025 RMK AO2
KTSP 011555Z AUTO 00000KT 10SM CLR 25/04 A3025 RMK AO2
KTSP 011535Z AUTO 00000KT 10SM CLR 24/04 A3025 RMK AO2
KTSP 011515Z AUTO 00000KT 10SM CLR 23/03 A3025 RMK AO2
KTSP 011455Z AUTO 00000KT 10SM CLR 21/03 A3025 RMK AO2
KTSP 011435Z AUTO 07003KT 10SM 19/03 A3025 RMK AO2
KTSP 011415Z AUTO A3024 RMK AO2 PWINO
KTSP 010935Z AUTO 33003KT 10SM CLR 20/M00 A3021 RMK AO2
KTSP 010915Z AUTO 35003KT 10SM CLR 20/M01 A3021 RMK AO2